Time;durP1;ratioP1;P1;durP2;ratioP2;P2;SDS_P1;SDS_P2;PMS_P1;PMS_P2;Temp;Humidity;BMP_temperature;BMP_pressure;BME280_temperature;BME280_humidity;BME280_pressure;Samples;Min_cycle;Max_cycle;Signal;HPM_P1;HPM_P2
2021/04/17 00:00:30;;;;;;;6.47;3.33;;;6.10;63.60;;;;;;2085712;28;20477;-83
2021/04/17 00:01:33;;;;;;;5.13;2.88;;;6.10;63.80;;;;;;2077181;28;20025;-83
2021/04/17 00:02:34;;;;;;;6.03;2.97;;;6.10;63.80;;;;;;2071649;28;20068;-83
2021/04/17 00:03:34;;;;;;;6.75;2.90;;;6.10;63.70;;;;;;2068012;28;21713;-83
2021/04/17 00:04:39;;;;;;;6.53;2.90;;;6.10;63.70;;;;;;2070812;28;20087;-83
2021/04/17 00:05:39;;;;;;;5.28;3.05;;;6.10;64.00;;;;;;2077204;28;20037;-85
2021/04/17 00:06:41;;;;;;;4.95;2.83;;;6.10;64.10;;;;;;2089550;28;20073;-83
2021/04/17 00:07:41;;;;;;;6.15;3.25;;;6.10;64.10;;;;;;2083855;28;20037;-83
2021/04/17 00:08:42;;;;;;;6.22;3.30;;;6.10;64.10;;;;;;2087335;28;20387;-83
2021/04/17 00:09:43;;;;;;;5.30;2.65;;;6.10;64.20;;;;;;2081134;28;20034;-83
2021/04/17 00:10:44;;;;;;;5.22;2.92;;;6.10;64.20;;;;;;2089379;28;20495;-83
2021/04/17 00:11:47;;;;;;;6.10;3.35;;;6.00;64.10;;;;;;2078643;28;20060;-82
2021/04/17 00:12:47;;;;;;;6.47;3.33;;;6.00;64.20;;;;;;2079307;28;20026;-83
2021/04/17 00:13:48;;;;;;;6.70;2.95;;;6.10;64.30;;;;;;2086559;28;20591;-84
2021/04/17 00:14:51;;;;;;;5.97;3.25;;;6.00;64.40;;;;;;2079976;28;20053;-83
2021/04/17 00:15:52;;;;;;;6.55;3.10;;;6.00;64.40;;;;;;2084226;28;20029;-83
2021/04/17 00:16:52;;;;;;;6.70;3.30;;;6.00;64.60;;;;;;2080792;28;20440;-83
2021/04/17 00:17:53;;;;;;;5.63;2.83;;;6.00;64.50;;;;;;2069272;28;20124;-83
2021/04/17 00:18:54;;;;;;;4.38;2.55;;;6.00;64.60;;;;;;2083415;28;20365;-83
2021/04/17 00:19:55;;;;;;;4.88;2.70;;;6.00;64.60;;;;;;2076706;28;20036;-83
2021/04/17 00:20:56;;;;;;;6.38;2.92;;;6.00;64.80;;;;;;2072001;28;20030;-83
2021/04/17 00:21:57;;;;;;;7.03;3.00;;;6.00;64.70;;;;;;2073070;28;20034;-83
2021/04/17 00:22:57;;;;;;;5.38;2.75;;;6.00;64.90;;;;;;2064554;28;20027;-84
2021/04/17 00:23:59;;;;;;;5.55;2.80;;;5.90;64.80;;;;;;2077518;28;20500;-84
2021/04/17 00:25:00;;;;;;;6.47;3.05;;;5.90;64.80;;;;;;2078784;28;20542;-83
2021/04/17 00:26:00;;;;;;;5.72;2.85;;;5.90;65.00;;;;;;2083030;28;20021;-84
2021/04/17 00:27:03;;;;;;;6.15;2.70;;;5.90;64.90;;;;;;2088547;28;20029;-84
2021/04/17 00:28:03;;;;;;;5.90;2.80;;;5.90;65.00;;;;;;2081199;28;20028;-84
2021/04/17 00:29:08;;;;;;;5.75;2.83;;;5.90;65.00;;;;;;2084263;28;20416;-84
2021/04/17 00:30:09;;;;;;;6.20;3.10;;;5.90;65.00;;;;;;2084639;28;20026;-84
2021/04/17 00:31:10;;;;;;;6.38;2.75;;;5.80;65.00;;;;;;2080263;28;20029;-83
2021/04/17 00:32:11;;;;;;;5.10;2.78;;;5.80;65.10;;;;;;2076587;28;20026;-82
2021/04/17 00:33:12;;;;;;;5.13;2.80;;;5.90;65.20;;;;;;2080176;28;20032;-82
2021/04/17 00:34:12;;;;;;;6.00;2.58;;;5.80;65.10;;;;;;2071990;28;20037;-83
2021/04/17 00:35:14;;;;;;;5.50;2.60;;;5.80;65.10;;;;;;2079255;28;20021;-83
2021/04/17 00:36:14;;;;;;;5.82;2.45;;;5.80;65.20;;;;;;2084355;28;21394;-83
2021/04/17 00:37:15;;;;;;;5.35;2.60;;;5.80;65.20;;;;;;2072193;28;20527;-83
2021/04/17 00:38:16;;;;;;;4.90;2.33;;;5.80;65.30;;;;;;2072392;28;20025;-83
2021/04/17 00:39:17;;;;;;;4.88;2.58;;;5.80;65.30;;;;;;2081153;28;20042;-83
2021/04/17 00:40:18;;;;;;;4.38;2.40;;;5.70;65.20;;;;;;2061009;28;20081;-83
2021/04/17 00:41:18;;;;;;;5.07;2.53;;;5.70;65.30;;;;;;2064017;28;20524;-84
2021/04/17 00:42:19;;;;;;;6.20;3.03;;;5.70;65.40;;;;;;2080670;28;20443;-83
2021/04/17 00:43:20;;;;;;;5.63;2.70;;;5.70;66.00;;;;;;2081743;28;20029;-83
2021/04/17 00:44:20;;;;;;;5.55;2.42;;;5.70;65.40;;;;;;2073030;28;20546;-83
2021/04/17 00:45:21;;;;;;;5.80;2.58;;;5.70;65.30;;;;;;2056468;28;20050;-83
2021/04/17 00:46:22;;;;;;;5.38;2.72;;;5.70;65.40;;;;;;2070825;28;20057;-83
2021/04/17 00:47:23;;;;;;;6.43;2.70;;;5.70;65.40;;;;;;2088945;28;20036;-83
2021/04/17 00:48:24;;;;;;;4.88;2.58;;;5.70;65.50;;;;;;2072377;28;20515;-83
2021/04/17 00:49:24;;;;;;;4.43;2.38;;;5.70;65.50;;;;;;2053254;28;20105;-83
2021/04/17 00:50:25;;;;;;;5.13;2.72;;;5.70;65.50;;;;;;2056778;28;20027;-83
2021/04/17 00:51:26;;;;;;;4.85;2.50;;;5.70;65.60;;;;;;2064474;28;20122;-83
2021/04/17 00:52:27;;;;;;;7.78;2.95;;;5.70;65.60;;;;;;2072865;28;20177;-83
2021/04/17 00:53:28;;;;;;;6.05;3.00;;;5.70;65.60;;;;;;2084879;28;20136;-83
2021/04/17 00:54:28;;;;;;;5.55;2.55;;;5.70;65.70;;;;;;2072325;28;20619;-83
2021/04/17 00:55:29;;;;;;;5.82;2.80;;;5.70;65.70;;;;;;2056787;28;20038;-83
2021/04/17 00:56:30;;;;;;;5.82;2.60;;;5.60;65.70;;;;;;2072236;28;20192;-83
2021/04/17 00:57:30;;;;;;;5.03;2.45;;;5.60;66.30;;;;;;2067768;28;20066;-83
2021/04/17 00:58:31;;;;;;;6.05;2.55;;;5.60;65.70;;;;;;2072689;28;20160;-84
2021/04/17 00:59:32;;;;;;;6.05;2.80;;;5.60;66.50;;;;;;2076083;28;20026;-84
2021/04/17 01:00:36;;;;;;;4.72;2.50;;;5.60;65.90;;;;;;2068845;28;20047;-84
2021/04/17 01:01:38;;;;;;;6.97;2.75;;;5.60;66.00;;;;;;2080003;28;20399;-84
2021/04/17 01:02:55;;;;;;;5.47;2.55;;;5.60;66.20;;;;;;2087112;28;20495;-83
2021/04/17 01:04:10;;;;;;;5.60;2.80;;;5.60;66.10;;;;;;2077933;28;20061;-84
2021/04/17 01:05:15;;;;;;;5.47;2.80;;;5.60;66.10;;;;;;2082539;28;20025;-84
2021/04/17 01:06:32;;;;;;;4.47;2.70;;;5.50;66.20;;;;;;2086469;28;20025;-84
2021/04/17 01:07:38;;;;;;;6.03;2.35;;;5.50;66.10;;;;;;2078403;28;20064;-84
2021/04/17 01:08:50;;;;;;;6.22;2.55;;;5.50;66.30;;;;;;2076822;28;20048;-84
2021/04/17 01:10:07;;;;;;;5.97;2.70;;;5.50;66.20;;;;;;2075826;28;20026;-84
2021/04/17 01:11:12;;;;;;;5.95;2.50;;;5.50;66.20;;;;;;2081118;28;20032;-84
2021/04/17 01:12:15;;;;;;;5.60;2.80;;;5.40;66.10;;;;;;2078622;28;20026;-84
2021/04/17 01:13:16;;;;;;;6.18;2.70;;;5.50;66.30;;;;;;2081524;28;20103;-84
2021/04/17 01:14:18;;;;;;;5.88;3.03;;;5.40;66.30;;;;;;2075916;28;20052;-85
2021/04/17 01:15:19;;;;;;;4.00;2.17;;;5.40;66.40;;;;;;2076741;28;20467;-84
2021/04/17 01:16:21;;;;;;;5.85;2.72;;;5.40;66.50;;;;;;2075024;28;20045;-84
2021/04/17 01:17:22;;;;;;;4.72;2.10;;;5.40;66.60;;;;;;2076082;28;20038;-83
2021/04/17 01:18:24;;;;;;;5.93;2.45;;;5.40;66.60;;;;;;2079944;28;20047;-84
2021/04/17 01:19:39;;;;;;;4.40;2.28;;;5.40;66.70;;;;;;2075997;28;20083;-84
2021/04/17 01:20:49;;;;;;;6.88;2.88;;;5.40;67.20;;;;;;2076393;28;20030;-84
2021/04/17 01:21:50;;;;;;;6.65;2.65;;;5.40;66.90;;;;;;2075495;28;20061;-85
2021/04/17 01:23:13;;;;;;;4.60;2.47;;;5.30;67.50;;;;;;2072275;28;20108;-83
2021/04/17 01:24:18;;;;;;;5.82;2.63;;;5.30;67.00;;;;;;2078374;28;20044;-84
2021/04/17 01:25:22;;;;;;;5.75;2.40;;;5.30;67.00;;;;;;2081115;28;20038;-85
2021/04/17 01:26:27;;;;;;;5.40;2.67;;;5.30;67.00;;;;;;2082620;28;20028;-84
2021/04/17 01:27:27;;;;;;;6.80;2.45;;;5.20;67.00;;;;;;2084360;28;20025;-84
2021/04/17 01:28:32;;;;;;;6.00;2.65;;;5.30;67.00;;;;;;2082100;28;20036;-85
2021/04/17 01:29:35;;;;;;;4.78;2.30;;;5.30;67.10;;;;;;2081855;28;20025;-84
2021/04/17 01:30:36;;;;;;;4.88;2.20;;;5.30;67.20;;;;;;2086912;28;20043;-84
2021/04/17 01:31:40;;;;;;;4.90;2.40;;;5.30;67.20;;;;;;2084498;28;20024;-84
2021/04/17 01:32:41;;;;;;;4.22;2.20;;;5.20;67.10;;;;;;2077178;28;20426;-84
2021/04/17 01:33:45;;;;;;;4.60;2.28;;;5.30;67.20;;;;;;2070682;28;20034;-84
2021/04/17 01:34:46;;;;;;;4.82;2.00;;;5.30;67.30;;;;;;2081044;28;20021;-84
2021/04/17 01:35:49;;;;;;;5.53;2.60;;;5.20;67.20;;;;;;2080007;28;20037;-84
2021/04/17 01:36:51;;;;;;;5.53;2.17;;;5.20;67.30;;;;;;2080606;28;20026;-84
2021/04/17 01:37:57;;;;;;;5.40;2.35;;;5.30;67.40;;;;;;2088548;28;20047;-83
2021/04/17 01:39:19;;;;;;;4.88;2.50;;;5.20;67.40;;;;;;2087695;28;20063;-84
2021/04/17 01:40:26;;;;;;;6.68;2.42;;;5.20;67.60;;;;;;2086719;28;20450;-83
2021/04/17 01:41:30;;;;;;;5.13;2.38;;;5.20;67.50;;;;;;2085724;28;20063;-83
2021/04/17 01:42:31;;;;;;;5.53;2.42;;;5.20;67.60;;;;;;2082492;28;20024;-84
2021/04/17 01:43:32;;;;;;;5.32;2.40;;;5.20;67.70;;;;;;2083679;28;20106;-83
2021/04/17 01:44:39;;;;;;;6.47;2.40;;;5.20;67.70;;;;;;2079003;28;20026;-84
2021/04/17 01:45:42;;;;;;;4.95;2.40;;;5.10;67.70;;;;;;2078618;28;20422;-83
2021/04/17 01:46:45;;;;;;;5.43;2.60;;;5.10;67.80;;;;;;2074929;28;20029;-84
2021/04/17 01:47:48;;;;;;;3.95;2.00;;;5.10;67.80;;;;;;2081938;28;20403;-84
2021/04/17 01:49:02;;;;;;;6.70;2.20;;;5.10;67.90;;;;;;2086994;28;20032;-83
2021/04/17 01:50:03;;;;;;;5.88;2.53;;;5.10;68.00;;;;;;2080654;28;20060;-84
2021/04/17 01:51:05;;;;;;;5.78;2.35;;;5.10;68.20;;;;;;2087590;28;20430;-84
2021/04/17 01:52:10;;;;;;;4.80;2.20;;;5.10;68.00;;;;;;2087806;28;20026;-84
2021/04/17 01:53:15;;;;;;;6.38;2.40;;;5.10;68.00;;;;;;2083616;28;20027;-84
2021/04/17 01:54:22;;;;;;;4.63;2.40;;;5.10;68.20;;;;;;2084047;28;20116;-84
2021/04/17 01:55:24;;;;;;;4.63;2.40;;;5.00;68.10;;;;;;2085110;28;20478;-84
2021/04/17 01:56:25;;;;;;;4.45;2.30;;;5.00;68.20;;;;;;2079797;28;20368;-84
2021/04/17 01:57:28;;;;;;;5.07;2.47;;;5.00;68.30;;;;;;2079671;28;20112;-84
2021/04/17 01:58:31;;;;;;;6.47;2.50;;;5.00;68.60;;;;;;2084721;28;20040;-84
2021/04/17 01:59:34;;;;;;;5.97;2.35;;;5.00;68.50;;;;;;2085307;28;20033;-85
2021/04/17 02:00:36;;;;;;;4.90;2.42;;;5.00;68.50;;;;;;2072008;28;20113;-85
2021/04/17 02:01:37;;;;;;;4.45;2.40;;;5.00;68.60;;;;;;2077975;28;20029;-84
2021/04/17 02:02:37;;;;;;;6.78;2.70;;;5.00;68.60;;;;;;2080686;28;20102;-84
2021/04/17 02:03:38;;;;;;;5.10;2.40;;;5.00;68.60;;;;;;2079015;28;20037;-85
2021/04/17 02:04:39;;;;;;;6.15;2.60;;;5.00;68.70;;;;;;2072186;28;20440;-84
2021/04/17 02:05:39;;;;;;;4.65;2.50;;;4.90;68.70;;;;;;2063938;28;20309;-84
2021/04/17 02:06:40;;;;;;;5.90;2.55;;;4.90;68.80;;;;;;2063154;28;20033;-84
2021/04/17 02:07:41;;;;;;;5.40;2.50;;;4.90;68.80;;;;;;2064178;28;20117;-84
2021/04/17 02:08:42;;;;;;;7.15;2.72;;;4.90;68.90;;;;;;2063642;28;20038;-83
2021/04/17 02:09:42;;;;;;;6.57;2.63;;;4.90;69.00;;;;;;2080176;28;20029;-84
2021/04/17 02:10:44;;;;;;;5.22;2.45;;;4.90;69.00;;;;;;2079831;28;20026;-83
2021/04/17 02:11:45;;;;;;;4.95;2.10;;;4.90;69.10;;;;;;2079837;28;20067;-84
2021/04/17 02:12:45;;;;;;;4.90;2.40;;;4.90;69.10;;;;;;2071801;28;20083;-84
2021/04/17 02:13:46;;;;;;;5.43;2.60;;;4.90;69.10;;;;;;2072301;28;20458;-83
2021/04/17 02:14:47;;;;;;;4.45;2.38;;;4.90;69.20;;;;;;2073190;28;20042;-84
2021/04/17 02:15:48;;;;;;;5.07;2.35;;;4.90;69.20;;;;;;2071771;28;20034;-83
2021/04/17 02:16:54;;;;;;;5.57;2.55;;;4.90;69.20;;;;;;2075151;28;20026;-83
2021/04/17 02:17:59;;;;;;;6.07;2.40;;;4.80;69.30;;;;;;2072752;28;20026;-83
2021/04/17 02:19:16;;;;;;;4.88;2.20;;;4.80;69.30;;;;;;2069813;28;20440;-83
2021/04/17 02:20:26;;;;;;;5.90;2.60;;;4.90;69.50;;;;;;2070825;28;20072;-83
2021/04/17 02:21:37;;;;;;;4.57;2.60;;;4.80;69.50;;;;;;2073209;28;20476;-83
2021/04/17 02:22:38;;;;;;;5.07;2.63;;;4.80;69.50;;;;;;2077675;28;20155;-84
2021/04/17 02:23:39;;;;;;;5.40;2.53;;;4.80;69.50;;;;;;2070617;28;20034;-84
2021/04/17 02:24:39;;;;;;;6.10;2.50;;;4.80;69.60;;;;;;2065632;28;20884;-83
2021/04/17 02:25:40;;;;;;;5.28;2.53;;;4.80;69.70;;;;;;2066037;28;20022;-83
2021/04/17 02:26:42;;;;;;;5.00;2.33;;;4.80;69.70;;;;;;2069790;28;20396;-83
2021/04/17 02:27:42;;;;;;;4.45;2.30;;;4.80;69.80;;;;;;2077687;28;20037;-83
2021/04/17 02:28:43;;;;;;;5.57;2.30;;;4.80;69.70;;;;;;2078714;28;20061;-83
2021/04/17 02:29:43;;;;;;;5.03;2.33;;;4.70;69.80;;;;;;2066634;28;20037;-83
2021/04/17 02:30:44;;;;;;;5.40;2.38;;;4.70;69.80;;;;;;2072116;28;20041;-83
2021/04/17 02:31:45;;;;;;;5.45;2.30;;;4.70;69.90;;;;;;2072793;28;20518;-84
2021/04/17 02:32:45;;;;;;;5.95;2.17;;;4.70;69.90;;;;;;2076325;28;20060;-84
2021/04/17 02:33:47;;;;;;;6.13;2.67;;;4.70;70.10;;;;;;2084266;28;20029;-84
2021/04/17 02:34:48;;;;;;;4.82;2.30;;;4.70;70.10;;;;;;2084886;28;20034;-83
2021/04/17 02:35:49;;;;;;;6.50;2.40;;;4.70;70.20;;;;;;2071180;28;20051;-82
2021/04/17 02:36:49;;;;;;;5.22;2.85;;;4.70;70.30;;;;;;2073637;28;20077;-82
2021/04/17 02:37:50;;;;;;;6.03;2.90;;;4.70;70.30;;;;;;2066622;28;20034;-82
2021/04/17 02:38:51;;;;;;;6.28;2.53;;;4.70;70.30;;;;;;2066308;28;20026;-83
2021/04/17 02:39:51;;;;;;;6.00;2.30;;;4.70;70.40;;;;;;2078955;28;20009;-83
2021/04/17 02:40:52;;;;;;;6.35;2.50;;;4.60;70.40;;;;;;2085246;28;20014;-82
2021/04/17 02:41:52;;;;;;;5.03;2.40;;;4.60;71.10;;;;;;2078127;28;20029;-83
2021/04/17 02:42:53;;;;;;;4.63;2.28;;;4.60;70.50;;;;;;2074333;28;20164;-82
2021/04/17 02:43:54;;;;;;;6.40;2.63;;;4.60;70.60;;;;;;2057084;28;21718;-83
2021/04/17 02:44:54;;;;;;;4.13;2.20;;;4.60;70.70;;;;;;2071705;28;20038;-84
2021/04/17 02:45:55;;;;;;;4.90;2.10;;;4.60;70.70;;;;;;2079684;28;20037;-84
2021/04/17 02:46:56;;;;;;;4.43;2.17;;;4.60;70.70;;;;;;2083519;28;20775;-83
2021/04/17 02:47:57;;;;;;;4.07;2.30;;;4.60;70.80;;;;;;2089025;28;20057;-83
2021/04/17 02:48:57;;;;;;;4.50;2.30;;;4.60;70.80;;;;;;2077677;28;20042;-83
2021/04/17 02:49:58;;;;;;;4.32;2.22;;;4.60;70.80;;;;;;2085171;28;20030;-83
2021/04/17 02:50:59;;;;;;;4.18;2.08;;;4.50;70.90;;;;;;2081844;28;20036;-84
2021/04/17 02:52:00;;;;;;;5.55;2.33;;;4.50;70.90;;;;;;2072554;28;20025;-84
2021/04/17 02:53:00;;;;;;;4.15;2.22;;;4.50;71.00;;;;;;2072207;28;20025;-84
2021/04/17 02:54:01;;;;;;;5.13;2.30;;;4.50;71.80;;;;;;2080361;28;20025;-84
2021/04/17 02:55:03;;;;;;;5.43;2.33;;;4.50;71.10;;;;;;2080491;28;20108;-84
2021/04/17 02:56:04;;;;;;;4.97;2.10;;;4.50;71.10;;;;;;2073058;28;20028;-83
2021/04/17 02:57:06;;;;;;;3.88;2.03;;;4.50;71.10;;;;;;2077114;28;20021;-84
2021/04/17 02:58:06;;;;;;;5.18;2.25;;;4.50;71.30;;;;;;2078543;28;20025;-83
2021/04/17 02:59:07;;;;;;;5.07;2.50;;;4.50;71.30;;;;;;2068281;28;20646;-83
2021/04/17 03:00:12;;;;;;;4.32;2.20;;;4.50;71.30;;;;;;2065977;28;20058;-83
2021/04/17 03:01:13;;;;;;;5.68;1.95;;;4.50;71.30;;;;;;2071860;28;20014;-84
2021/04/17 03:02:14;;;;;;;5.70;2.65;;;4.50;71.40;;;;;;2066782;28;20034;-83
2021/04/17 03:03:15;;;;;;;4.22;2.22;;;4.40;71.40;;;;;;2074371;28;20050;-84
2021/04/17 03:04:16;;;;;;;4.20;2.00;;;4.40;72.00;;;;;;2079221;28;20076;-84
2021/04/17 03:05:17;;;;;;;4.70;2.05;;;4.40;71.50;;;;;;2070691;28;20424;-84
2021/04/17 03:06:18;;;;;;;4.65;2.40;;;4.40;71.50;;;;;;2073913;28;20028;-84
2021/04/17 03:07:19;;;;;;;5.18;2.28;;;4.40;71.60;;;;;;2079154;28;20033;-83
2021/04/17 03:08:19;;;;;;;5.68;2.33;;;4.40;72.30;;;;;;2083018;28;20040;-83
2021/04/17 03:09:20;;;;;;;5.85;2.50;;;4.40;71.90;;;;;;2087629;28;20009;-83
2021/04/17 03:10:20;;;;;;;5.65;2.55;;;4.40;72.00;;;;;;2079156;28;20014;-84
2021/04/17 03:11:21;;;;;;;4.45;2.42;;;4.40;71.90;;;;;;2085837;28;20018;-82
2021/04/17 03:12:22;;;;;;;7.25;2.83;;;4.30;72.00;;;;;;2088572;28;20014;-84
2021/04/17 03:13:22;;;;;;;5.80;2.60;;;4.30;72.10;;;;;;2069055;28;20033;-83
2021/04/17 03:14:23;;;;;;;5.18;2.50;;;4.30;72.20;;;;;;2055891;28;20027;-83
2021/04/17 03:15:24;;;;;;;4.13;2.30;;;4.30;72.30;;;;;;2060454;28;20094;-83
2021/04/17 03:16:25;;;;;;;5.53;2.65;;;4.30;72.30;;;;;;2063686;28;20026;-83
2021/04/17 03:17:25;;;;;;;4.80;2.55;;;4.30;72.40;;;;;;2071839;28;20041;-83
2021/04/17 03:18:26;;;;;;;5.53;2.67;;;4.30;72.40;;;;;;2075266;28;20371;-83
2021/04/17 03:19:27;;;;;;;5.35;2.50;;;4.30;72.50;;;;;;2077094;28;20542;-83
2021/04/17 03:20:28;;;;;;;4.72;2.25;;;4.30;72.50;;;;;;2080481;28;20029;-83
2021/04/17 03:21:28;;;;;;;4.45;2.50;;;4.30;72.50;;;;;;2079478;28;20025;-83
2021/04/17 03:22:29;;;;;;;6.28;2.92;;;4.30;72.60;;;;;;2078036;28;20040;-83
2021/04/17 03:23:29;;;;;;;6.13;3.00;;;4.30;72.70;;;;;;2069435;28;20041;-83
2021/04/17 03:24:30;;;;;;;7.55;3.00;;;4.30;72.70;;;;;;2070265;28;20435;-83
2021/04/17 03:25:31;;;;;;;5.32;2.60;;;4.20;72.70;;;;;;2075565;28;20062;-83
2021/04/17 03:26:32;;;;;;;5.93;2.50;;;4.20;72.80;;;;;;2071536;28;20033;-83
2021/04/17 03:27:33;;;;;;;4.85;2.45;;;4.20;72.90;;;;;;2071894;28;20480;-83
2021/04/17 03:28:33;;;;;;;6.50;2.47;;;4.20;73.00;;;;;;2085003;28;20039;-83
2021/04/17 03:29:34;;;;;;;4.40;2.33;;;4.20;73.00;;;;;;2068785;28;20142;-83
2021/04/17 03:30:35;;;;;;;5.75;2.40;;;4.20;73.10;;;;;;2067730;28;20206;-84
2021/04/17 03:31:36;;;;;;;4.97;2.28;;;4.20;73.20;;;;;;2075585;28;20061;-84
2021/04/17 03:32:37;;;;;;;5.85;2.50;;;4.20;73.20;;;;;;2077393;28;20096;-84
2021/04/17 03:33:38;;;;;;;4.75;2.08;;;4.20;73.40;;;;;;2076208;28;20017;-84
2021/04/17 03:34:38;;;;;;;7.65;2.55;;;4.20;73.50;;;;;;2071245;28;20511;-84
2021/04/17 03:35:39;;;;;;;5.28;2.30;;;4.20;74.20;;;;;;2063622;28;20034;-84
2021/04/17 03:36:40;;;;;;;4.80;2.25;;;4.20;73.50;;;;;;2071742;28;20037;-84
2021/04/17 03:37:41;;;;;;;4.95;2.10;;;4.20;73.60;;;;;;2071657;28;20046;-83
2021/04/17 03:38:41;;;;;;;4.82;2.28;;;4.20;73.50;;;;;;2079507;28;20034;-84
2021/04/17 03:39:42;;;;;;;6.25;2.50;;;4.20;73.60;;;;;;2078022;28;20060;-84
2021/04/17 03:40:43;;;;;;;5.78;2.30;;;4.20;73.80;;;;;;2058722;28;20030;-84
2021/04/17 03:41:43;;;;;;;5.45;2.30;;;4.20;73.80;;;;;;2079499;28;20021;-83
2021/04/17 03:42:44;;;;;;;6.88;2.85;;;4.20;73.80;;;;;;2070462;28;20468;-84
2021/04/17 03:43:44;;;;;;;5.82;2.20;;;4.20;73.90;;;;;;2060346;28;20030;-83
2021/04/17 03:44:45;;;;;;;4.80;2.20;;;4.20;74.00;;;;;;2071054;28;20116;-84
2021/04/17 03:45:46;;;;;;;4.75;2.30;;;4.20;73.90;;;;;;2070240;28;20037;-83
2021/04/17 03:46:47;;;;;;;3.97;2.28;;;4.20;74.00;;;;;;2087799;28;20115;-83
2021/04/17 03:47:47;;;;;;;5.38;2.05;;;4.20;74.10;;;;;;2083123;28;20511;-83
2021/04/17 03:48:48;;;;;;;4.32;2.20;;;4.20;74.10;;;;;;2070019;28;20392;-83
2021/04/17 03:49:49;;;;;;;4.30;2.10;;;4.20;74.10;;;;;;2078887;28;20041;-83
2021/04/17 03:50:50;;;;;;;4.97;2.10;;;4.20;74.10;;;;;;2069834;28;20515;-83
2021/04/17 03:51:50;;;;;;;5.50;2.55;;;4.20;74.20;;;;;;2077852;28;20034;-83
2021/04/17 03:52:51;;;;;;;4.07;2.00;;;4.20;74.20;;;;;;2080330;28;20055;-83
2021/04/17 03:53:52;;;;;;;4.65;1.70;;;4.20;74.30;;;;;;2080199;28;20432;-83
2021/04/17 03:54:53;;;;;;;6.05;2.28;;;4.20;74.30;;;;;;2075363;28;20116;-83
2021/04/17 03:55:54;;;;;;;5.22;2.10;;;4.20;74.30;;;;;;2077384;28;20466;-83
2021/04/17 03:56:54;;;;;;;4.43;2.28;;;4.20;74.30;;;;;;2084095;28;20483;-82
2021/04/17 03:57:55;;;;;;;6.40;2.65;;;4.20;74.30;;;;;;2063182;28;20022;-83
2021/04/17 03:58:55;;;;;;;3.78;2.10;;;4.20;74.50;;;;;;2063301;28;20032;-83
2021/04/17 03:59:56;;;;;;;5.47;2.13;;;4.20;74.40;;;;;;2066647;28;20030;-83
2021/04/17 04:00:57;;;;;;;4.60;2.20;;;4.20;74.50;;;;;;2073680;28;20042;-83
2021/04/17 04:01:57;;;;;;;3.83;2.10;;;4.20;74.60;;;;;;2061718;28;20043;-83
2021/04/17 04:02:58;;;;;;;5.63;2.00;;;4.20;74.50;;;;;;2062651;28;20050;-83
2021/04/17 04:03:59;;;;;;;5.00;1.90;;;4.20;74.60;;;;;;2080238;28;20084;-83
2021/04/17 04:05:00;;;;;;;4.50;2.08;;;4.20;74.60;;;;;;2080449;28;20024;-83
2021/04/17 04:06:01;;;;;;;5.88;2.10;;;4.20;74.70;;;;;;2079652;28;20049;-83
2021/04/17 04:07:02;;;;;;;5.88;2.05;;;4.20;74.70;;;;;;2071502;28;20373;-83
2021/04/17 04:08:03;;;;;;;5.90;2.70;;;4.20;74.90;;;;;;2072084;28;20033;-83
2021/04/17 04:09:03;;;;;;;4.95;2.28;;;4.20;74.90;;;;;;2079440;28;20029;-84
2021/04/17 04:10:06;;;;;;;5.22;2.47;;;4.20;74.90;;;;;;2080261;28;20029;-84
2021/04/17 04:11:07;;;;;;;4.47;2.20;;;4.20;74.90;;;;;;2086169;28;20469;-84
2021/04/17 04:12:08;;;;;;;4.85;2.30;;;4.10;74.90;;;;;;2075810;28;20030;-84
2021/04/17 04:13:09;;;;;;;3.97;2.05;;;4.10;74.90;;;;;;2075691;28;20030;-84
2021/04/17 04:14:10;;;;;;;5.60;2.25;;;4.10;74.90;;;;;;2068015;28;20088;-83
2021/04/17 04:15:12;;;;;;;4.25;2.20;;;4.20;75.00;;;;;;2077463;28;20463;-81
2021/04/17 04:16:13;;;;;;;4.88;2.28;;;4.10;75.10;;;;;;2076953;28;20077;-82
2021/04/17 04:17:14;;;;;;;4.68;2.20;;;4.10;75.10;;;;;;2054457;28;20485;-82
2021/04/17 04:18:14;;;;;;;5.35;2.33;;;4.10;75.20;;;;;;2044777;28;20125;-83
2021/04/17 04:19:15;;;;;;;4.63;2.03;;;4.10;75.20;;;;;;2056358;28;20114;-83
2021/04/17 04:20:15;;;;;;;5.68;2.50;;;4.10;75.20;;;;;;2064270;28;20528;-82
2021/04/17 04:21:16;;;;;;;4.10;1.98;;;4.10;75.30;;;;;;2076290;28;20041;-82
2021/04/17 04:22:17;;;;;;;4.63;1.92;;;4.10;75.30;;;;;;2087312;28;20028;-83
2021/04/17 04:23:18;;;;;;;4.28;1.80;;;4.10;75.30;;;;;;2080849;28;20037;-83
2021/04/17 04:24:18;;;;;;;4.13;2.13;;;4.10;75.40;;;;;;2072096;28;20415;-82
2021/04/17 04:25:19;;;;;;;5.50;2.10;;;4.10;75.40;;;;;;2073105;28;20041;-84
2021/04/17 04:26:19;;;;;;;5.03;2.15;;;4.10;75.50;;;;;;2076776;28;20148;-83
2021/04/17 04:27:20;;;;;;;5.07;2.28;;;4.10;75.40;;;;;;2074588;28;20033;-83
2021/04/17 04:28:21;;;;;;;3.80;2.08;;;4.10;75.60;;;;;;2072209;28;20109;-83
2021/04/17 04:29:21;;;;;;;3.97;2.00;;;4.10;75.50;;;;;;2072592;28;20030;-83
2021/04/17 04:30:23;;;;;;;5.68;1.70;;;4.10;75.50;;;;;;2077519;28;20117;-84
2021/04/17 04:31:24;;;;;;;4.68;2.25;;;4.10;75.60;;;;;;2080936;28;20503;-83
2021/04/17 04:32:24;;;;;;;5.35;2.30;;;4.10;75.60;;;;;;2064580;28;20026;-84
2021/04/17 04:33:25;;;;;;;6.30;2.25;;;4.10;75.60;;;;;;2064878;28;20113;-84
2021/04/17 04:34:26;;;;;;;6.55;2.45;;;4.00;75.60;;;;;;2087871;28;20020;-83
2021/04/17 04:35:27;;;;;;;6.13;2.50;;;4.10;75.70;;;;;;2081465;28;20065;-84
2021/04/17 04:36:28;;;;;;;4.90;2.65;;;4.10;75.80;;;;;;2072905;28;20080;-83
2021/04/17 04:37:28;;;;;;;6.90;2.58;;;4.10;75.80;;;;;;2071579;28;20519;-83
2021/04/17 04:38:29;;;;;;;4.82;2.10;;;4.10;75.80;;;;;;2072467;28;20053;-83
2021/04/17 04:39:30;;;;;;;5.05;2.25;;;4.10;75.80;;;;;;2080949;28;20021;-84
2021/04/17 04:40:30;;;;;;;4.18;1.95;;;4.10;75.90;;;;;;2079485;28;20034;-83
2021/04/17 04:41:31;;;;;;;5.32;2.30;;;4.10;75.80;;;;;;2087429;28;20025;-84
2021/04/17 04:42:32;;;;;;;4.40;2.25;;;4.10;75.80;;;;;;2080136;28;20032;-83
2021/04/17 04:43:33;;;;;;;4.68;1.80;;;4.10;75.90;;;;;;2074223;28;20081;-84
2021/04/17 04:44:34;;;;;;;4.53;1.88;;;4.10;75.90;;;;;;2078051;28;20018;-84
2021/04/17 04:45:34;;;;;;;4.35;2.00;;;4.10;75.90;;;;;;2063571;28;20046;-84
2021/04/17 04:46:35;;;;;;;4.78;2.05;;;4.10;75.90;;;;;;2064751;28;20073;-84
2021/04/17 04:47:36;;;;;;;4.68;2.08;;;4.10;75.90;;;;;;2073650;28;20126;-84
2021/04/17 04:48:37;;;;;;;5.15;2.38;;;4.10;75.90;;;;;;2080570;28;20030;-83
2021/04/17 04:49:37;;;;;;;4.65;2.10;;;4.10;76.00;;;;;;2079374;28;20112;-84
2021/04/17 04:50:38;;;;;;;5.07;2.33;;;4.10;76.00;;;;;;2087160;28;20145;-84
2021/04/17 04:51:39;;;;;;;5.15;2.13;;;4.10;76.00;;;;;;2088335;28;20476;-82
2021/04/17 04:52:40;;;;;;;4.20;2.22;;;4.10;76.00;;;;;;2076712;28;20030;-84
2021/04/17 04:53:41;;;;;;;3.83;1.73;;;4.10;76.00;;;;;;2062068;28;20054;-83
2021/04/17 04:54:42;;;;;;;7.13;2.38;;;4.10;76.00;;;;;;2064441;28;20044;-83
2021/04/17 04:55:42;;;;;;;4.78;2.08;;;4.10;76.00;;;;;;2061228;28;20034;-83
2021/04/17 04:56:43;;;;;;;4.32;2.00;;;4.10;76.00;;;;;;2064604;28;20026;-84
2021/04/17 04:57:44;;;;;;;5.00;1.80;;;4.10;76.10;;;;;;2067365;28;20033;-84
2021/04/17 04:58:44;;;;;;;4.28;2.08;;;4.10;76.10;;;;;;2074558;28;20030;-83
2021/04/17 04:59:45;;;;;;;3.42;1.75;;;4.10;76.10;;;;;;2068053;28;20424;-83
2021/04/17 05:00:45;;;;;;;5.03;1.90;;;4.10;76.20;;;;;;2068553;28;20033;-83
2021/04/17 05:01:46;;;;;;;3.83;2.17;;;4.10;76.20;;;;;;2072972;28;20037;-84
2021/04/17 05:02:47;;;;;;;4.95;2.08;;;4.10;76.20;;;;;;2071074;28;20088;-83
2021/04/17 05:03:47;;;;;;;4.00;2.15;;;4.10;76.20;;;;;;2080604;28;20478;-83
2021/04/17 05:04:48;;;;;;;5.18;2.15;;;4.10;76.20;;;;;;2088942;28;20057;-84
2021/04/17 05:05:48;;;;;;;4.60;2.03;;;4.20;76.30;;;;;;2072488;28;20036;-83
2021/04/17 05:06:49;;;;;;;6.47;2.30;;;4.20;76.30;;;;;;2064576;28;20018;-83
2021/04/17 05:07:50;;;;;;;4.80;2.13;;;4.10;76.30;;;;;;2070365;28;20191;-84
2021/04/17 05:08:50;;;;;;;6.97;2.20;;;4.20;77.00;;;;;;2072468;28;20487;-84
2021/04/17 05:09:51;;;;;;;4.70;1.95;;;4.20;76.40;;;;;;2072541;28;20061;-83
2021/04/17 05:10:52;;;;;;;4.18;1.98;;;4.10;76.40;;;;;;2069481;28;20042;-83
2021/04/17 05:11:52;;;;;;;4.57;2.08;;;4.20;76.50;;;;;;2081646;28;20038;-84
2021/04/17 05:12:53;;;;;;;5.55;2.30;;;4.20;76.40;;;;;;2084497;28;20072;-84
2021/04/17 05:13:54;;;;;;;4.75;1.98;;;4.20;76.50;;;;;;2085998;28;20061;-84
2021/04/17 05:14:54;;;;;;;4.57;2.17;;;4.20;76.50;;;;;;2077873;28;20113;-83
2021/04/17 05:15:55;;;;;;;4.55;2.00;;;4.20;76.50;;;;;;2073826;28;20030;-84
2021/04/17 05:16:55;;;;;;;5.63;2.03;;;4.20;76.50;;;;;;2084189;28;20071;-83
2021/04/17 05:17:56;;;;;;;4.72;2.17;;;4.20;76.60;;;;;;2080729;28;20099;-83
2021/04/17 05:18:56;;;;;;;5.95;1.85;;;4.20;76.50;;;;;;2078221;28;20535;-84
2021/04/17 05:19:57;;;;;;;4.97;2.47;;;4.20;76.50;;;;;;2081155;28;20030;-84
2021/04/17 05:20:58;;;;;;;5.38;2.40;;;4.20;76.70;;;;;;2080136;28;20025;-84
2021/04/17 05:21:58;;;;;;;7.95;3.00;;;4.20;76.70;;;;;;2069872;28;20804;-84
2021/04/17 05:22:59;;;;;;;4.93;2.22;;;4.30;76.80;;;;;;2060030;28;20057;-84
2021/04/17 05:24:00;;;;;;;4.90;1.90;;;4.30;76.80;;;;;;2065302;28;20033;-84
2021/04/17 05:25:01;;;;;;;4.32;2.10;;;4.30;76.80;;;;;;2085025;28;20033;-84
2021/04/17 05:26:01;;;;;;;4.50;2.30;;;4.30;76.70;;;;;;2074799;28;20100;-84